ESNBA EETN-EETU
Flight info
| Callsign | ESNBA |
|---|---|
| Flight time | N/A |
| Altitude | 10000 |
| Route | NITSO DCT EEPU/N0111F030 DCT RISKU |
| Aircraft | C172/L-SFG/C |
Departure
| Time | 2026-05-05 19:10 |
|---|---|
| Airport | Lennart Meri Tallinn Airport (EETN) |
Arrival
| Time | N/A |
|---|---|
| Airport | Tartu Airport (EETU) |
| Time | Latitude | Longitude | Altitude | Speed | Heading |
|---|---|---|---|---|---|
| 2026-05-05 18:57 | 59.41571 | 24.82847 | 156 ft | 0 kts | 180° |
| 2026-05-05 19:05 | 59.41559 | 24.82854 | 156 ft | 4 kts | 127° |
| 2026-05-05 19:06 | 59.41558 | 24.82949 | 156 ft | 10 kts | 87° |
| 2026-05-05 19:06 | 59.41544 | 24.83089 | 156 ft | 11 kts | 176° |
| 2026-05-05 19:06 | 59.41500 | 24.83191 | 156 ft | 14 kts | 88° |
| 2026-05-05 19:06 | 59.41500 | 24.83417 | 156 ft | 19 kts | 91° |
| 2026-05-05 19:07 | 59.41498 | 24.83697 | 156 ft | 21 kts | 91° |
| 2026-05-05 19:07 | 59.41498 | 24.83951 | 156 ft | 16 kts | 88° |
| 2026-05-05 19:07 | 59.41499 | 24.84147 | 156 ft | 12 kts | 90° |
| 2026-05-05 19:07 | 59.41498 | 24.84289 | 156 ft | 9 kts | 92° |
| 2026-05-05 19:08 | 59.41497 | 24.84385 | 156 ft | 6 kts | 90° |
| 2026-05-05 19:08 | 59.41497 | 24.84471 | 156 ft | 7 kts | 90° |
| 2026-05-05 19:08 | 59.41496 | 24.84627 | 156 ft | 20 kts | 90° |
| 2026-05-05 19:08 | 59.41491 | 24.84983 | 156 ft | 14 kts | 140° |
| 2026-05-05 19:09 | 59.41380 | 24.85009 | 156 ft | 17 kts | 187° |
| 2026-05-05 19:09 | 59.41319 | 24.84894 | 156 ft | 12 kts | 271° |
| 2026-05-05 19:09 | 59.41320 | 24.84866 | 156 ft | 0 kts | 271° |
| 2026-05-05 19:09 | 59.41316 | 24.84515 | 154 ft | 62 kts | 270° |
| 2026-05-05 19:10 | 59.41310 | 24.83344 | 424 ft | 97 kts | 268° |
| 2026-05-05 19:10 | 59.41279 | 24.81938 | 913 ft | 115 kts | 260° |
| 2026-05-05 19:10 | 59.40648 | 24.80696 | 1199 ft | 152 kts | 210° |
| 2026-05-05 19:10 | 59.39715 | 24.79459 | 1213 ft | 161 kts | 230° |
| 2026-05-05 19:11 | 59.39029 | 24.77902 | 1204 ft | 142 kts | 233° |
| 2026-05-05 19:11 | 59.38419 | 24.76557 | 1190 ft | 121 kts | 233° |
| 2026-05-05 19:11 | 59.37891 | 24.75428 | 1188 ft | 105 kts | 233° |
| 2026-05-05 19:11 | 59.37414 | 24.74392 | 1195 ft | 102 kts | 233° |
| 2026-05-05 19:12 | 59.36953 | 24.73429 | 1428 ft | 98 kts | 234° |
| 2026-05-05 19:12 | 59.36456 | 24.72436 | 1707 ft | 104 kts | 233° |
| 2026-05-05 19:12 | 59.35951 | 24.71420 | 1975 ft | 104 kts | 233° |
| 2026-05-05 19:12 | 59.35447 | 24.70408 | 2240 ft | 104 kts | 234° |
| 2026-05-05 19:13 | 59.34943 | 24.69420 | 2494 ft | 104 kts | 233° |
| 2026-05-05 19:13 | 59.34429 | 24.68422 | 2757 ft | 105 kts | 233° |
| 2026-05-05 19:13 | 59.33926 | 24.67424 | 3080 ft | 101 kts | 234° |
| 2026-05-05 19:13 | 59.33394 | 24.66346 | 3427 ft | 119 kts | 238° |
| 2026-05-05 19:14 | 59.33079 | 24.64856 | 3772 ft | 125 kts | 258° |
| 2026-05-05 19:14 | 59.32800 | 24.63209 | 3996 ft | 131 kts | 256° |
| 2026-05-05 19:14 | 59.32305 | 24.61759 | 3991 ft | 138 kts | 211° |
| 2026-05-05 19:14 | 59.31327 | 24.61757 | 3995 ft | 142 kts | 179° |
| 2026-05-05 19:15 | 59.30345 | 24.61931 | 3994 ft | 142 kts | 182° |
| 2026-05-05 19:15 | 59.29355 | 24.62085 | 3994 ft | 143 kts | 182° |
| 2026-05-05 19:15 | 59.28359 | 24.62232 | 3996 ft | 144 kts | 182° |
| 2026-05-05 19:15 | 59.27357 | 24.62382 | 3996 ft | 145 kts | 182° |
| 2026-05-05 19:16 | 59.26351 | 24.62531 | 3996 ft | 145 kts | 182° |
| 2026-05-05 19:16 | 59.25347 | 24.62675 | 3996 ft | 144 kts | 182° |
| 2026-05-05 19:16 | 59.24348 | 24.62821 | 3994 ft | 144 kts | 182° |
| 2026-05-05 19:16 | 59.23368 | 24.62965 | 3992 ft | 143 kts | 182° |
| 2026-05-05 19:17 | 59.22381 | 24.63115 | 3994 ft | 142 kts | 182° |
| 2026-05-05 19:17 | 59.21394 | 24.63260 | 3994 ft | 142 kts | 182° |
| 2026-05-05 19:17 | 59.20406 | 24.63404 | 3994 ft | 142 kts | 182° |
| 2026-05-05 19:17 | 59.19416 | 24.63546 | 3993 ft | 142 kts | 182° |
| 2026-05-05 19:18 | 59.18428 | 24.63687 | 3995 ft | 142 kts | 182° |